FIN7LP EGLL-EFHK
Flight info
| Callsign | FIN7LP |
|---|---|
| Flight time | 2h 13m |
| Altitude | 41000 |
| Route | BPK Q295 MATCH P144 SAMHO DCT LARGA DCT SOPTO DCT AMRAM DCT INVOL DCT ELRID DCT RIRIP Y364 LAKUT |
| Aircraft | A359/H-SDE2E3GHIJ3J4J5LM1ORWXY/LB1D1 |
Departure
| Time | 2026-04-23 17:06 |
|---|---|
| Airport | London Heathrow Airport (EGLL) |
Arrival
| Time | 2026-04-23 19:20 |
|---|---|
| Airport | Helsinki Vantaa Airport (EFHK) |
| Time | Latitude | Longitude | Altitude | Speed | Heading |
|---|---|---|---|---|---|
| 2026-04-23 16:35 | 51.47098 | -0.44208 | 93 ft | 0 kts | 270° |
| 2026-04-23 16:45 | 51.47098 | -0.44200 | 93 ft | 4 kts | 268° |
| 2026-04-23 16:45 | 51.47100 | -0.44157 | 93 ft | 4 kts | 261° |
| 2026-04-23 16:45 | 51.47106 | -0.44115 | 96 ft | 4 kts | 250° |
| 2026-04-23 16:46 | 51.47117 | -0.44077 | 94 ft | 4 kts | 227° |
| 2026-04-23 16:46 | 51.47135 | -0.44060 | 96 ft | 1 kts | 180° |
| 2026-04-23 16:46 | 51.47122 | -0.44060 | 96 ft | 0 kts | 179° |
| 2026-04-23 16:49 | 51.47103 | -0.44060 | 94 ft | 9 kts | 179° |
| 2026-04-23 16:49 | 51.46980 | -0.44059 | 97 ft | 13 kts | 180° |
| 2026-04-23 16:49 | 51.46877 | -0.44058 | 94 ft | 17 kts | 180° |
| 2026-04-23 16:49 | 51.46793 | -0.44058 | 95 ft | 10 kts | 181° |
| 2026-04-23 16:50 | 51.46758 | -0.44131 | 97 ft | 10 kts | 257° |
| 2026-04-23 16:50 | 51.46753 | -0.44271 | 93 ft | 15 kts | 270° |
| 2026-04-23 16:50 | 51.46752 | -0.44454 | 93 ft | 18 kts | 269° |
| 2026-04-23 16:50 | 51.46751 | -0.44653 | 95 ft | 14 kts | 271° |
| 2026-04-23 16:51 | 51.46752 | -0.44782 | 93 ft | 13 kts | 270° |
| 2026-04-23 16:51 | 51.46751 | -0.44947 | 96 ft | 17 kts | 270° |
| 2026-04-23 16:51 | 51.46750 | -0.45145 | 93 ft | 14 kts | 270° |
| 2026-04-23 16:51 | 51.46750 | -0.45303 | 93 ft | 16 kts | 270° |
| 2026-04-23 16:52 | 51.46750 | -0.45501 | 93 ft | 19 kts | 270° |
| 2026-04-23 16:52 | 51.46749 | -0.45677 | 96 ft | 13 kts | 269° |
| 2026-04-23 16:52 | 51.46749 | -0.45802 | 97 ft | 11 kts | 270° |
| 2026-04-23 16:52 | 51.46748 | -0.45946 | 96 ft | 15 kts | 270° |
| 2026-04-23 16:53 | 51.46747 | -0.46128 | 96 ft | 17 kts | 269° |
| 2026-04-23 16:53 | 51.46747 | -0.46240 | 96 ft | 5 kts | 270° |
| 2026-04-23 16:53 | 51.46747 | -0.46245 | 96 ft | 0 kts | 270° |
| 2026-04-23 16:59 | 51.46747 | -0.46247 | 93 ft | 2 kts | 270° |
| 2026-04-23 16:59 | 51.46747 | -0.46376 | 96 ft | 17 kts | 270° |
| 2026-04-23 17:00 | 51.46747 | -0.46567 | 95 ft | 12 kts | 270° |
| 2026-04-23 17:00 | 51.46747 | -0.46721 | 96 ft | 16 kts | 270° |
| 2026-04-23 17:00 | 51.46747 | -0.46907 | 96 ft | 16 kts | 270° |
| 2026-04-23 17:00 | 51.46747 | -0.47094 | 96 ft | 16 kts | 270° |
| 2026-04-23 17:01 | 51.46746 | -0.47290 | 96 ft | 19 kts | 270° |
| 2026-04-23 17:01 | 51.46745 | -0.47516 | 96 ft | 19 kts | 269° |
| 2026-04-23 17:01 | 51.46744 | -0.47705 | 94 ft | 18 kts | 270° |
| 2026-04-23 17:01 | 51.46744 | -0.47903 | 93 ft | 14 kts | 270° |
| 2026-04-23 17:02 | 51.46743 | -0.48014 | 93 ft | 16 kts | 270° |
| 2026-04-23 17:02 | 51.46742 | -0.48280 | 94 ft | 18 kts | 269° |
| 2026-04-23 17:02 | 51.46742 | -0.48485 | 93 ft | 20 kts | 270° |
| 2026-04-23 17:02 | 51.46741 | -0.48644 | 93 ft | 11 kts | 269° |
| 2026-04-23 17:03 | 51.46703 | -0.48740 | 98 ft | 10 kts | 200° |
| 2026-04-23 17:03 | 51.46633 | -0.48756 | 95 ft | 6 kts | 191° |
| 2026-04-23 17:03 | 51.46617 | -0.48763 | 96 ft | 0 kts | 198° |
| 2026-04-23 17:05 | 51.46565 | -0.48786 | 96 ft | 12 kts | 193° |
| 2026-04-23 17:05 | 51.46496 | -0.48751 | 97 ft | 11 kts | 133° |
| 2026-04-23 17:05 | 51.46478 | -0.48636 | 97 ft | 12 kts | 90° |
| 2026-04-23 17:06 | 51.46477 | -0.48404 | 97 ft | 46 kts | 89° |
| 2026-04-23 17:06 | 51.46479 | -0.47857 | 93 ft | 98 kts | 90° |
| 2026-04-23 17:06 | 51.46486 | -0.46416 | 173 ft | 152 kts | 91° |
| 2026-04-23 17:06 | 51.46501 | -0.44779 | 1076 ft | 145 kts | 89° |
| 2026-04-23 17:07 | 51.46575 | -0.43060 | 1637 ft | 170 kts | 78° |
| 2026-04-23 17:07 | 51.47170 | -0.41168 | 1928 ft | 211 kts | 54° |
| 2026-04-23 17:07 | 51.48165 | -0.39299 | 2566 ft | 227 kts | 51° |
| 2026-04-23 17:07 | 51.49240 | -0.37361 | 3364 ft | 239 kts | 51° |
| 2026-04-23 17:08 | 51.50354 | -0.35310 | 4164 ft | 246 kts | 52° |
| 2026-04-23 17:08 | 51.51422 | -0.33138 | 5013 ft | 250 kts | 61° |
| 2026-04-23 17:08 | 51.52143 | -0.30603 | 5859 ft | 253 kts | 71° |
| 2026-04-23 17:08 | 51.52986 | -0.28084 | 6706 ft | 260 kts | 60° |
| 2026-04-23 17:09 | 51.53988 | -0.25699 | 7652 ft | 262 kts | 57° |
| 2026-04-23 17:09 | 51.55070 | -0.23339 | 8626 ft | 264 kts | 55° |
| 2026-04-23 17:09 | 51.56196 | -0.20983 | 9580 ft | 269 kts | 54° |
| 2026-04-23 17:09 | 51.57355 | -0.18596 | 10627 ft | 272 kts | 54° |
| 2026-04-23 17:10 | 51.58550 | -0.16126 | 11180 ft | 291 kts | 54° |
| 2026-04-23 17:10 | 51.59836 | -0.13448 | 11551 ft | 314 kts | 54° |
| 2026-04-23 17:10 | 51.61210 | -0.10568 | 11991 ft | 333 kts | 54° |
| 2026-04-23 17:10 | 51.62633 | -0.07568 | 12719 ft | 341 kts | 54° |
| 2026-04-23 17:11 | 51.64074 | -0.04521 | 13592 ft | 344 kts | 54° |
| 2026-04-23 17:11 | 51.65529 | -0.01438 | 14470 ft | 347 kts | 54° |
| 2026-04-23 17:11 | 51.67001 | 0.01687 | 15122 ft | 353 kts | 54° |
| 2026-04-23 17:11 | 51.68499 | 0.04876 | 15754 ft | 360 kts | 54° |
| 2026-04-23 17:12 | 51.70025 | 0.08126 | 16434 ft | 366 kts | 54° |
| 2026-04-23 17:12 | 51.71573 | 0.11425 | 17168 ft | 371 kts | 54° |
| 2026-04-23 17:12 | 51.73140 | 0.14771 | 17866 ft | 377 kts | 54° |
| 2026-04-23 17:12 | 51.74732 | 0.18173 | 18579 ft | 383 kts | 55° |
| 2026-04-23 17:13 | 51.76346 | 0.21629 | 19216 ft | 389 kts | 55° |
| 2026-04-23 17:13 | 51.78097 | 0.25025 | 19826 ft | 397 kts | 50° |
| 2026-04-23 17:13 | 51.80018 | 0.28273 | 20477 ft | 403 kts | 48° |
| 2026-04-23 17:13 | 51.82021 | 0.31507 | 21119 ft | 409 kts | 47° |
| 2026-04-23 17:14 | 51.84074 | 0.34734 | 21764 ft | 415 kts | 46° |
| 2026-04-23 17:14 | 51.86169 | 0.37990 | 22392 ft | 421 kts | 46° |
| 2026-04-23 17:14 | 51.88296 | 0.41291 | 23038 ft | 427 kts | 47° |
| 2026-04-23 17:14 | 51.90453 | 0.44651 | 23661 ft | 433 kts | 47° |
| 2026-04-23 17:15 | 51.92634 | 0.48064 | 24240 ft | 438 kts | 47° |
| 2026-04-23 17:15 | 51.94834 | 0.51522 | 24730 ft | 445 kts | 47° |
| 2026-04-23 17:15 | 51.97064 | 0.55039 | 25284 ft | 449 kts | 48° |
| 2026-04-23 17:15 | 51.99099 | 0.58254 | 25814 ft | 452 kts | 48° |
| 2026-04-23 17:16 | 52.01373 | 0.61795 | 26406 ft | 457 kts | 46° |
| 2026-04-23 17:16 | 52.03869 | 0.65041 | 26946 ft | 463 kts | 41° |
| 2026-04-23 17:16 | 52.06481 | 0.68167 | 27486 ft | 468 kts | 39° |
| 2026-04-23 17:16 | 52.09145 | 0.71260 | 28021 ft | 473 kts | 39° |
| 2026-04-23 17:17 | 52.11849 | 0.74350 | 28576 ft | 477 kts | 39° |
| 2026-04-23 17:17 | 52.14581 | 0.77458 | 29078 ft | 481 kts | 39° |
| 2026-04-23 17:17 | 52.17302 | 0.80556 | 29576 ft | 485 kts | 39° |
| 2026-04-23 17:17 | 52.20079 | 0.83728 | 30101 ft | 489 kts | 39° |
| 2026-04-23 17:18 | 52.25621 | 0.90097 | 30967 ft | 496 kts | 39° |
| 2026-04-23 17:18 | 52.28441 | 0.93351 | 31336 ft | 499 kts | 39° |
| 2026-04-23 17:18 | 52.31294 | 0.96650 | 31703 ft | 503 kts | 39° |
| 2026-04-23 17:19 | 52.34155 | 0.99965 | 32062 ft | 505 kts | 39° |
| 2026-04-23 17:19 | 52.37020 | 1.03285 | 32469 ft | 507 kts | 39° |
| 2026-04-23 17:19 | 52.39907 | 1.06639 | 32817 ft | 510 kts | 39° |
| 2026-04-23 17:19 | 52.42773 | 1.09976 | 33175 ft | 512 kts | 39° |
| 2026-04-23 17:20 | 52.45681 | 1.13367 | 33496 ft | 515 kts | 39° |
| 2026-04-23 17:20 | 52.51507 | 1.20174 | 34476 ft | 513 kts | 39° |
| 2026-04-23 17:21 | 52.57258 | 1.26912 | 35338 ft | 509 kts | 39° |
| 2026-04-23 17:21 | 52.59338 | 1.29355 | 35671 ft | 507 kts | 39° |
| 2026-04-23 17:21 | 52.65051 | 1.36082 | 36522 ft | 503 kts | 39° |
| 2026-04-23 17:22 | 52.67886 | 1.39430 | 36923 ft | 502 kts | 39° |
| 2026-04-23 17:22 | 52.73544 | 1.46130 | 37688 ft | 499 kts | 38° |
| 2026-04-23 17:23 | 52.79169 | 1.52813 | 38267 ft | 499 kts | 38° |
| 2026-04-23 17:23 | 52.81995 | 1.56181 | 38408 ft | 502 kts | 38° |
| 2026-04-23 17:23 | 52.87649 | 1.62931 | 39068 ft | 500 kts | 38° |
| 2026-04-23 17:24 | 52.90466 | 1.66301 | 39345 ft | 498 kts | 38° |
| 2026-04-23 17:24 | 52.93269 | 1.69658 | 39598 ft | 497 kts | 38° |
| 2026-04-23 17:24 | 52.98860 | 1.76374 | 40054 ft | 496 kts | 38° |
| 2026-04-23 17:25 | 53.04443 | 1.83106 | 40426 ft | 496 kts | 38° |
| 2026-04-23 17:25 | 53.07649 | 1.86980 | 40661 ft | 495 kts | 38° |
| 2026-04-23 17:26 | 53.13169 | 1.93667 | 41064 ft | 494 kts | 38° |
| 2026-04-23 17:26 | 53.18675 | 2.00359 | 41422 ft | 493 kts | 38° |
| 2026-04-23 17:27 | 53.27007 | 2.10516 | 41460 ft | 495 kts | 37° |
| 2026-04-23 17:27 | 53.32659 | 2.17012 | 41460 ft | 496 kts | 35° |
| 2026-04-23 17:28 | 53.38406 | 2.23436 | 41462 ft | 496 kts | 35° |
| 2026-04-23 17:28 | 53.44132 | 2.29906 | 41460 ft | 496 kts | 35° |
| 2026-04-23 17:29 | 53.49833 | 2.36440 | 41462 ft | 496 kts | 36° |
| 2026-04-23 17:30 | 53.57195 | 2.45673 | 41459 ft | 496 kts | 39° |
| 2026-04-23 17:30 | 53.66350 | 2.57423 | 41460 ft | 496 kts | 38° |
| 2026-04-23 17:31 | 53.71861 | 2.64433 | 41454 ft | 496 kts | 38° |
| 2026-04-23 17:31 | 53.77367 | 2.71440 | 41455 ft | 496 kts | 38° |
| 2026-04-23 17:32 | 53.82872 | 2.78468 | 41455 ft | 496 kts | 38° |
| 2026-04-23 17:32 | 53.88372 | 2.85516 | 41455 ft | 496 kts | 38° |
| 2026-04-23 17:33 | 53.93861 | 2.92577 | 41457 ft | 496 kts | 38° |
| 2026-04-23 17:33 | 53.99352 | 2.99664 | 41457 ft | 496 kts | 38° |
| 2026-04-23 17:34 | 54.03912 | 3.05568 | 41457 ft | 496 kts | 38° |
| 2026-04-23 17:35 | 54.12140 | 3.16262 | 41454 ft | 496 kts | 39° |
| 2026-04-23 17:35 | 54.20349 | 3.26987 | 41453 ft | 495 kts | 39° |
| 2026-04-23 17:36 | 54.25813 | 3.34157 | 41454 ft | 495 kts | 39° |
| 2026-04-23 17:36 | 54.31276 | 3.41349 | 41451 ft | 496 kts | 39° |
| 2026-04-23 17:37 | 54.36736 | 3.48562 | 41452 ft | 496 kts | 39° |
| 2026-04-23 17:38 | 54.44848 | 3.59419 | 41452 ft | 486 kts | 40° |
| 2026-04-23 17:38 | 54.50057 | 3.66500 | 41449 ft | 476 kts | 40° |
| 2026-04-23 17:39 | 54.55211 | 3.73446 | 41449 ft | 466 kts | 39° |
| 2026-04-23 17:39 | 54.60268 | 3.80235 | 41447 ft | 456 kts | 39° |
| 2026-04-23 17:40 | 54.65354 | 3.86957 | 41449 ft | 465 kts | 38° |
| 2026-04-23 17:40 | 54.70532 | 3.93813 | 41439 ft | 474 kts | 38° |
| 2026-04-23 17:41 | 54.75586 | 4.00611 | 41440 ft | 482 kts | 39° |
| 2026-04-23 17:41 | 54.83608 | 4.11523 | 41435 ft | 495 kts | 39° |
| 2026-04-23 17:42 | 54.91045 | 4.24054 | 41429 ft | 498 kts | 48° |
| 2026-04-23 17:43 | 54.95731 | 4.32900 | 41428 ft | 497 kts | 49° |
| 2026-04-23 17:43 | 55.00398 | 4.41816 | 41418 ft | 498 kts | 48° |
| 2026-04-23 17:44 | 55.05072 | 4.50758 | 41418 ft | 499 kts | 49° |
| 2026-04-23 17:44 | 55.12088 | 4.64205 | 41414 ft | 500 kts | 48° |
| 2026-04-23 17:45 | 55.19067 | 4.77649 | 41413 ft | 501 kts | 49° |
| 2026-04-23 17:46 | 55.26079 | 4.91237 | 41409 ft | 501 kts | 49° |
| 2026-04-23 17:46 | 55.30656 | 5.00463 | 41404 ft | 500 kts | 54° |
| 2026-04-23 17:47 | 55.34755 | 5.10324 | 41402 ft | 500 kts | 55° |
| 2026-04-23 17:48 | 55.40762 | 5.25325 | 41398 ft | 500 kts | 56° |
| 2026-04-23 17:48 | 55.44753 | 5.35370 | 41398 ft | 501 kts | 56° |
| 2026-04-23 17:49 | 55.48749 | 5.45447 | 41394 ft | 502 kts | 56° |
| 2026-04-23 17:49 | 55.52745 | 5.55557 | 41398 ft | 502 kts | 56° |
| 2026-04-23 17:50 | 55.56727 | 5.65670 | 41380 ft | 501 kts | 56° |
| 2026-04-23 17:50 | 55.62679 | 5.80865 | 41377 ft | 500 kts | 56° |
| 2026-04-23 17:51 | 55.66632 | 5.91007 | 41369 ft | 501 kts | 56° |
| 2026-04-23 17:52 | 55.72565 | 6.06311 | 41364 ft | 503 kts | 56° |
| 2026-04-23 17:52 | 55.78485 | 6.21676 | 41353 ft | 503 kts | 55° |
| 2026-04-23 17:53 | 55.84375 | 6.37063 | 41336 ft | 502 kts | 55° |
| 2026-04-23 17:54 | 55.88289 | 6.47340 | 41334 ft | 501 kts | 55° |
| 2026-04-23 17:54 | 55.94137 | 6.62775 | 41315 ft | 500 kts | 55° |
| 2026-04-23 17:55 | 56.00198 | 6.77943 | 41315 ft | 500 kts | 53° |
| 2026-04-23 17:56 | 56.04308 | 6.87885 | 41301 ft | 500 kts | 53° |
| 2026-04-23 17:56 | 56.10439 | 7.02962 | 41309 ft | 500 kts | 53° |
| 2026-04-23 17:57 | 56.14511 | 7.13095 | 41280 ft | 502 kts | 53° |
| 2026-04-23 17:58 | 56.20607 | 7.28349 | 41274 ft | 501 kts | 53° |
| 2026-04-23 17:58 | 56.24653 | 7.38526 | 41268 ft | 501 kts | 53° |
| 2026-04-23 17:59 | 56.28690 | 7.48717 | 41267 ft | 501 kts | 53° |
| 2026-04-23 17:59 | 56.32713 | 7.58915 | 41260 ft | 499 kts | 53° |
| 2026-04-23 18:00 | 56.36721 | 7.69119 | 41249 ft | 500 kts | 53° |
| 2026-04-23 18:00 | 56.40737 | 7.79385 | 41238 ft | 501 kts | 52° |
| 2026-04-23 18:01 | 56.44758 | 7.89712 | 41235 ft | 506 kts | 53° |
| 2026-04-23 18:01 | 56.48824 | 8.00194 | 41222 ft | 512 kts | 52° |
| 2026-04-23 18:02 | 56.52221 | 8.08984 | 41223 ft | 514 kts | 53° |
| 2026-04-23 18:02 | 56.56994 | 8.21397 | 41219 ft | 512 kts | 53° |
| 2026-04-23 18:03 | 56.61059 | 8.32019 | 41212 ft | 513 kts | 53° |
| 2026-04-23 18:03 | 56.65115 | 8.42661 | 41211 ft | 512 kts | 53° |
| 2026-04-23 18:04 | 56.69159 | 8.53320 | 41201 ft | 512 kts | 54° |
| 2026-04-23 18:04 | 56.73198 | 8.64009 | 41199 ft | 512 kts | 53° |
| 2026-04-23 18:05 | 56.77226 | 8.74716 | 41186 ft | 512 kts | 53° |
| 2026-04-23 18:05 | 56.81240 | 8.85438 | 41187 ft | 510 kts | 53° |
| 2026-04-23 18:06 | 56.85224 | 8.96133 | 41176 ft | 509 kts | 53° |
| 2026-04-23 18:06 | 56.89193 | 9.06829 | 41176 ft | 508 kts | 54° |
| 2026-04-23 18:07 | 56.93156 | 9.17554 | 41177 ft | 508 kts | 54° |
| 2026-04-23 18:07 | 56.97082 | 9.28225 | 41164 ft | 508 kts | 54° |
| 2026-04-23 18:08 | 57.00383 | 9.37236 | 41164 ft | 508 kts | 54° |
| 2026-04-23 18:08 | 57.04956 | 9.49777 | 41148 ft | 508 kts | 53° |
| 2026-04-23 18:09 | 57.08871 | 9.60565 | 41133 ft | 507 kts | 53° |
| 2026-04-23 18:09 | 57.12773 | 9.71362 | 41130 ft | 506 kts | 54° |
| 2026-04-23 18:10 | 57.16653 | 9.82145 | 41131 ft | 506 kts | 54° |
| 2026-04-23 18:10 | 57.20536 | 9.92989 | 41132 ft | 506 kts | 54° |
| 2026-04-23 18:11 | 57.24380 | 10.03775 | 41138 ft | 496 kts | 54° |
| 2026-04-23 18:11 | 57.28131 | 10.14354 | 41142 ft | 490 kts | 54° |
| 2026-04-23 18:12 | 57.31853 | 10.24884 | 41143 ft | 488 kts | 54° |
| 2026-04-23 18:12 | 57.35554 | 10.35399 | 41144 ft | 487 kts | 54° |
| 2026-04-23 18:13 | 57.39243 | 10.45926 | 41140 ft | 487 kts | 54° |
| 2026-04-23 18:13 | 57.42924 | 10.56480 | 41140 ft | 487 kts | 54° |
| 2026-04-23 18:14 | 57.46596 | 10.67057 | 41139 ft | 487 kts | 54° |
| 2026-04-23 18:14 | 57.50261 | 10.77659 | 41131 ft | 488 kts | 54° |
| 2026-04-23 18:15 | 57.53923 | 10.88300 | 41147 ft | 489 kts | 54° |
| 2026-04-23 18:15 | 57.57573 | 10.98956 | 41139 ft | 487 kts | 54° |
| 2026-04-23 18:16 | 57.61206 | 11.09608 | 41137 ft | 487 kts | 54° |
| 2026-04-23 18:16 | 57.64827 | 11.20272 | 41136 ft | 487 kts | 54° |
| 2026-04-23 18:17 | 57.70030 | 11.36589 | 41135 ft | 488 kts | 57° |
| 2026-04-23 18:17 | 57.73349 | 11.47681 | 41116 ft | 489 kts | 57° |
| 2026-04-23 18:18 | 57.76685 | 11.58762 | 41110 ft | 489 kts | 57° |
| 2026-04-23 18:18 | 57.80037 | 11.69834 | 41105 ft | 489 kts | 57° |
| 2026-04-23 18:19 | 57.83388 | 11.80925 | 41102 ft | 489 kts | 57° |
| 2026-04-23 18:19 | 57.86729 | 11.92036 | 41101 ft | 489 kts | 57° |
| 2026-04-23 18:20 | 57.90038 | 12.03096 | 41108 ft | 489 kts | 57° |
| 2026-04-23 18:20 | 57.93360 | 12.14257 | 41114 ft | 490 kts | 57° |
| 2026-04-23 18:21 | 57.96681 | 12.25467 | 41123 ft | 490 kts | 57° |
| 2026-04-23 18:21 | 57.99993 | 12.36707 | 41115 ft | 489 kts | 57° |
| 2026-04-23 18:22 | 58.03280 | 12.47915 | 41112 ft | 488 kts | 57° |
| 2026-04-23 18:22 | 58.06007 | 12.57248 | 41113 ft | 488 kts | 57° |
| 2026-04-23 18:23 | 58.10905 | 12.74114 | 41108 ft | 488 kts | 57° |
| 2026-04-23 18:24 | 58.15786 | 12.91041 | 41108 ft | 488 kts | 57° |
| 2026-04-23 18:25 | 58.20643 | 13.08015 | 41112 ft | 488 kts | 57° |
| 2026-04-23 18:25 | 58.23856 | 13.19313 | 41103 ft | 485 kts | 57° |
| 2026-04-23 18:26 | 58.27073 | 13.30680 | 41098 ft | 485 kts | 57° |
| 2026-04-23 18:26 | 58.30234 | 13.41900 | 41100 ft | 485 kts | 57° |
| 2026-04-23 18:27 | 58.33408 | 13.53221 | 41092 ft | 484 kts | 57° |
| 2026-04-23 18:27 | 58.36564 | 13.64541 | 41097 ft | 484 kts | 57° |
| 2026-04-23 18:28 | 58.39708 | 13.75869 | 41089 ft | 484 kts | 58° |
| 2026-04-23 18:28 | 58.42839 | 13.87212 | 41087 ft | 482 kts | 57° |
| 2026-04-23 18:29 | 58.45952 | 13.98543 | 41086 ft | 481 kts | 57° |
| 2026-04-23 18:29 | 58.49051 | 14.09877 | 41066 ft | 481 kts | 58° |
| 2026-04-23 18:30 | 58.52144 | 14.21242 | 41056 ft | 481 kts | 58° |
| 2026-04-23 18:30 | 58.55222 | 14.32613 | 41050 ft | 481 kts | 58° |
| 2026-04-23 18:31 | 58.58287 | 14.43998 | 41046 ft | 480 kts | 58° |
| 2026-04-23 18:31 | 58.61340 | 14.55390 | 41050 ft | 480 kts | 58° |
| 2026-04-23 18:32 | 58.64374 | 14.66774 | 41053 ft | 478 kts | 58° |
| 2026-04-23 18:32 | 58.67214 | 14.77483 | 41060 ft | 476 kts | 58° |
| 2026-04-23 18:33 | 58.70215 | 14.88847 | 41064 ft | 476 kts | 58° |
| 2026-04-23 18:33 | 58.73203 | 15.00219 | 41086 ft | 477 kts | 58° |
| 2026-04-23 18:34 | 58.76186 | 15.11629 | 41062 ft | 477 kts | 58° |
| 2026-04-23 18:34 | 58.79158 | 15.23059 | 41061 ft | 477 kts | 58° |
| 2026-04-23 18:35 | 58.82121 | 15.34520 | 41076 ft | 477 kts | 58° |
| 2026-04-23 18:35 | 58.85072 | 15.45986 | 41051 ft | 477 kts | 58° |
| 2026-04-23 18:36 | 58.88020 | 15.57497 | 41045 ft | 478 kts | 58° |
| 2026-04-23 18:36 | 58.90953 | 15.69014 | 41036 ft | 478 kts | 58° |
| 2026-04-23 18:37 | 58.93881 | 15.80569 | 41045 ft | 478 kts | 58° |
| 2026-04-23 18:37 | 58.96798 | 15.92141 | 41038 ft | 478 kts | 58° |
| 2026-04-23 18:38 | 58.99705 | 16.03731 | 41023 ft | 478 kts | 58° |
| 2026-04-23 18:38 | 59.02601 | 16.15345 | 41022 ft | 478 kts | 58° |
| 2026-04-23 18:39 | 59.05480 | 16.26953 | 41018 ft | 476 kts | 58° |
| 2026-04-23 18:39 | 59.08344 | 16.38556 | 41010 ft | 476 kts | 58° |
| 2026-04-23 18:40 | 59.11203 | 16.50194 | 41009 ft | 476 kts | 59° |
| 2026-04-23 18:40 | 59.14043 | 16.61825 | 40993 ft | 475 kts | 59° |
| 2026-04-23 18:41 | 59.16869 | 16.73460 | 40993 ft | 474 kts | 59° |
| 2026-04-23 18:41 | 59.19679 | 16.85086 | 40990 ft | 474 kts | 59° |
| 2026-04-23 18:42 | 59.22482 | 16.96748 | 40989 ft | 473 kts | 59° |
| 2026-04-23 18:42 | 59.25251 | 17.08345 | 40981 ft | 470 kts | 59° |
| 2026-04-23 18:43 | 59.28001 | 17.19910 | 40977 ft | 469 kts | 59° |
| 2026-04-23 18:43 | 59.30725 | 17.31423 | 40971 ft | 469 kts | 59° |
| 2026-04-23 18:44 | 59.33473 | 17.43105 | 40973 ft | 468 kts | 59° |
| 2026-04-23 18:44 | 59.36166 | 17.54617 | 40968 ft | 468 kts | 59° |
| 2026-04-23 18:45 | 59.38873 | 17.66247 | 40968 ft | 468 kts | 59° |
| 2026-04-23 18:45 | 59.41566 | 17.77881 | 40976 ft | 468 kts | 59° |
| 2026-04-23 18:46 | 59.44240 | 17.89501 | 40966 ft | 466 kts | 59° |
| 2026-04-23 18:46 | 59.46904 | 18.01132 | 40967 ft | 466 kts | 59° |
| 2026-04-23 18:47 | 59.49556 | 18.12777 | 40984 ft | 466 kts | 59° |
| 2026-04-23 18:47 | 59.52057 | 18.24607 | 40955 ft | 469 kts | 62° |
| 2026-04-23 18:48 | 59.54364 | 18.36650 | 40960 ft | 470 kts | 63° |
| 2026-04-23 18:48 | 59.56622 | 18.48754 | 40971 ft | 470 kts | 63° |
| 2026-04-23 18:49 | 59.58869 | 18.60873 | 40981 ft | 470 kts | 63° |
| 2026-04-23 18:49 | 59.61114 | 18.73015 | 40982 ft | 471 kts | 63° |
| 2026-04-23 18:50 | 59.62972 | 18.83106 | 40990 ft | 471 kts | 63° |
| 2026-04-23 18:50 | 59.65578 | 18.97345 | 40988 ft | 471 kts | 63° |
| 2026-04-23 18:51 | 59.67790 | 19.09525 | 40987 ft | 472 kts | 63° |
| 2026-04-23 18:51 | 59.70001 | 19.21779 | 40979 ft | 472 kts | 63° |
| 2026-04-23 18:52 | 59.72201 | 19.34047 | 40980 ft | 472 kts | 64° |
| 2026-04-23 18:52 | 59.74388 | 19.46326 | 40979 ft | 473 kts | 64° |
| 2026-04-23 18:53 | 59.76564 | 19.58619 | 40971 ft | 473 kts | 64° |
| 2026-04-23 18:53 | 59.78731 | 19.70943 | 40970 ft | 473 kts | 64° |
| 2026-04-23 18:54 | 59.80886 | 19.83280 | 40965 ft | 473 kts | 64° |
| 2026-04-23 18:54 | 59.83016 | 19.95551 | 40971 ft | 473 kts | 64° |
| 2026-04-23 18:55 | 59.85153 | 20.07947 | 40956 ft | 475 kts | 64° |
| 2026-04-23 18:55 | 59.87283 | 20.20389 | 40953 ft | 474 kts | 64° |
| 2026-04-23 18:56 | 59.89056 | 20.30811 | 40952 ft | 475 kts | 64° |
| 2026-04-23 18:56 | 59.91504 | 20.45300 | 40954 ft | 475 kts | 65° |
| 2026-04-23 18:57 | 59.93596 | 20.57776 | 40950 ft | 475 kts | 65° |
| 2026-04-23 18:57 | 59.95679 | 20.70276 | 40947 ft | 475 kts | 65° |
| 2026-04-23 18:58 | 59.97748 | 20.82788 | 40944 ft | 475 kts | 65° |
| 2026-04-23 18:58 | 59.99809 | 20.95334 | 40944 ft | 475 kts | 65° |
| 2026-04-23 18:59 | 60.01855 | 21.07878 | 40937 ft | 475 kts | 65° |
| 2026-04-23 18:59 | 60.03892 | 21.20454 | 40938 ft | 475 kts | 65° |
| 2026-04-23 19:00 | 60.05914 | 21.33025 | 40939 ft | 475 kts | 65° |
| 2026-04-23 19:00 | 60.07925 | 21.45621 | 40941 ft | 475 kts | 65° |
| 2026-04-23 19:01 | 60.09927 | 21.58246 | 40938 ft | 475 kts | 65° |
| 2026-04-23 19:01 | 60.11915 | 21.70880 | 40935 ft | 475 kts | 66° |
| 2026-04-23 19:02 | 60.13559 | 21.81393 | 40977 ft | 475 kts | 66° |
| 2026-04-23 19:02 | 60.15856 | 21.96194 | 40928 ft | 475 kts | 66° |
| 2026-04-23 19:02 | 60.16824 | 22.02484 | 40520 ft | 470 kts | 66° |
| 2026-04-23 19:03 | 60.17792 | 22.08779 | 39746 ft | 473 kts | 65° |
| 2026-04-23 19:03 | 60.18763 | 22.15108 | 38978 ft | 476 kts | 65° |
| 2026-04-23 19:03 | 60.19612 | 22.21578 | 38167 ft | 483 kts | 70° |
| 2026-04-23 19:03 | 60.20071 | 22.28267 | 36977 ft | 485 kts | 77° |
| 2026-04-23 19:04 | 60.20227 | 22.35059 | 35496 ft | 488 kts | 79° |
| 2026-04-23 19:04 | 60.20305 | 22.41887 | 34034 ft | 489 kts | 79° |
| 2026-04-23 19:04 | 60.20369 | 22.48727 | 32328 ft | 489 kts | 78° |
| 2026-04-23 19:04 | 60.20429 | 22.55568 | 30621 ft | 490 kts | 78° |
| 2026-04-23 19:05 | 60.20487 | 22.62416 | 28786 ft | 491 kts | 78° |
| 2026-04-23 19:05 | 60.20540 | 22.69179 | 27071 ft | 488 kts | 79° |
| 2026-04-23 19:05 | 60.20586 | 22.75948 | 25516 ft | 481 kts | 79° |
| 2026-04-23 19:05 | 60.20629 | 22.82628 | 24103 ft | 474 kts | 79° |
| 2026-04-23 19:06 | 60.20668 | 22.89187 | 22602 ft | 465 kts | 79° |
| 2026-04-23 19:06 | 60.20705 | 22.95641 | 21037 ft | 458 kts | 80° |
| 2026-04-23 19:06 | 60.20740 | 23.01986 | 19534 ft | 450 kts | 81° |
| 2026-04-23 19:06 | 60.20773 | 23.08222 | 18109 ft | 443 kts | 81° |
| 2026-04-23 19:07 | 60.20799 | 23.14349 | 16896 ft | 430 kts | 81° |
| 2026-04-23 19:07 | 60.20820 | 23.20282 | 16108 ft | 422 kts | 82° |
| 2026-04-23 19:07 | 60.20845 | 23.26163 | 15274 ft | 420 kts | 82° |
| 2026-04-23 19:07 | 60.20867 | 23.32026 | 14473 ft | 418 kts | 82° |
| 2026-04-23 19:08 | 60.20879 | 23.35966 | 13999 ft | 415 kts | 83° |
| 2026-04-23 19:08 | 60.20894 | 23.41650 | 13237 ft | 410 kts | 83° |
| 2026-04-23 19:08 | 60.20905 | 23.47351 | 12418 ft | 405 kts | 83° |
| 2026-04-23 19:08 | 60.20914 | 23.53050 | 11648 ft | 395 kts | 84° |
| 2026-04-23 19:09 | 60.20910 | 23.58268 | 11395 ft | 360 kts | 84° |
| 2026-04-23 19:09 | 60.20901 | 23.63060 | 11265 ft | 326 kts | 83° |
| 2026-04-23 19:09 | 60.20896 | 23.67408 | 11108 ft | 298 kts | 82° |
| 2026-04-23 19:09 | 60.20894 | 23.71416 | 10980 ft | 280 kts | 82° |
| 2026-04-23 19:10 | 60.20903 | 23.75321 | 10846 ft | 278 kts | 82° |
| 2026-04-23 19:10 | 60.20910 | 23.79184 | 10699 ft | 276 kts | 82° |
| 2026-04-23 19:10 | 60.20913 | 23.83043 | 10581 ft | 275 kts | 82° |
| 2026-04-23 19:10 | 60.20914 | 23.86908 | 10189 ft | 277 kts | 82° |
| 2026-04-23 19:11 | 60.20914 | 23.90816 | 9745 ft | 284 kts | 83° |
| 2026-04-23 19:11 | 60.20913 | 23.94853 | 9314 ft | 291 kts | 83° |
| 2026-04-23 19:11 | 60.20905 | 23.98922 | 8847 ft | 291 kts | 84° |
| 2026-04-23 19:11 | 60.20894 | 24.02967 | 8392 ft | 289 kts | 84° |
| 2026-04-23 19:12 | 60.20882 | 24.06985 | 7961 ft | 287 kts | 84° |
| 2026-04-23 19:12 | 60.20870 | 24.10975 | 7584 ft | 283 kts | 85° |
| 2026-04-23 19:12 | 60.20857 | 24.14900 | 7184 ft | 279 kts | 85° |
| 2026-04-23 19:12 | 60.20843 | 24.18791 | 6756 ft | 277 kts | 86° |
| 2026-04-23 19:13 | 60.20829 | 24.22648 | 6352 ft | 275 kts | 86° |
| 2026-04-23 19:13 | 60.20813 | 24.26492 | 5914 ft | 274 kts | 86° |
| 2026-04-23 19:13 | 60.20797 | 24.30306 | 5480 ft | 272 kts | 86° |
| 2026-04-23 19:13 | 60.20780 | 24.34100 | 5055 ft | 271 kts | 87° |
| 2026-04-23 19:14 | 60.20761 | 24.37879 | 4612 ft | 270 kts | 87° |
| 2026-04-23 19:14 | 60.20741 | 24.41610 | 4329 ft | 262 kts | 87° |
| 2026-04-23 19:14 | 60.20717 | 24.45195 | 4165 ft | 251 kts | 87° |
| 2026-04-23 19:14 | 60.20695 | 24.48622 | 4024 ft | 241 kts | 87° |
| 2026-04-23 19:15 | 60.20676 | 24.51950 | 3747 ft | 236 kts | 87° |
| 2026-04-23 19:15 | 60.20657 | 24.55233 | 3434 ft | 234 kts | 87° |
| 2026-04-23 19:15 | 60.20638 | 24.58488 | 3112 ft | 232 kts | 87° |
| 2026-04-23 19:15 | 60.20618 | 24.61718 | 2788 ft | 231 kts | 88° |
| 2026-04-23 19:16 | 60.20623 | 24.64927 | 2455 ft | 228 kts | 83° |
| 2026-04-23 19:16 | 60.21032 | 24.67937 | 2298 ft | 219 kts | 61° |
| 2026-04-23 19:16 | 60.21905 | 24.70215 | 2301 ft | 197 kts | 39° |
| 2026-04-23 19:17 | 60.23693 | 24.73734 | 2319 ft | 166 kts | 44° |
| 2026-04-23 19:17 | 60.24462 | 24.75462 | 2212 ft | 166 kts | 44° |
| 2026-04-23 19:17 | 60.25245 | 24.77167 | 1961 ft | 166 kts | 44° |
| 2026-04-23 19:17 | 60.26030 | 24.78875 | 1752 ft | 166 kts | 44° |
| 2026-04-23 19:18 | 60.26812 | 24.80590 | 1501 ft | 166 kts | 44° |
| 2026-04-23 19:18 | 60.27572 | 24.82251 | 1292 ft | 156 kts | 44° |
| 2026-04-23 19:18 | 60.28278 | 24.83793 | 1055 ft | 144 kts | 45° |
| 2026-04-23 19:18 | 60.28933 | 24.85227 | 847 ft | 135 kts | 45° |
| 2026-04-23 19:19 | 60.30160 | 24.87922 | 527 ft | 130 kts | 46° |
| 2026-04-23 19:19 | 60.30770 | 24.89261 | 376 ft | 130 kts | 44° |
| 2026-04-23 19:20 | 60.31959 | 24.91851 | 208 ft | 101 kts | 47° |
| 2026-04-23 19:20 | 60.32260 | 24.92513 | 205 ft | 41 kts | 47° |
| 2026-04-23 19:20 | 60.32392 | 24.92843 | 208 ft | 27 kts | 59° |
| 2026-04-23 19:20 | 60.32452 | 24.93191 | 207 ft | 27 kts | 76° |
| 2026-04-23 19:21 | 60.32489 | 24.93511 | 202 ft | 18 kts | 78° |
| 2026-04-23 19:21 | 60.32526 | 24.93831 | 205 ft | 12 kts | 75° |
| 2026-04-23 19:21 | 60.32572 | 24.93989 | 209 ft | 15 kts | 49° |
| 2026-04-23 19:22 | 60.32651 | 24.94168 | 204 ft | 19 kts | 49° |
| 2026-04-23 19:22 | 60.32747 | 24.94379 | 193 ft | 22 kts | 47° |
| 2026-04-23 19:22 | 60.32917 | 24.94761 | 209 ft | 14 kts | 60° |
| 2026-04-23 19:23 | 60.32889 | 24.94905 | 209 ft | 13 kts | 147° |
| 2026-04-23 19:23 | 60.32793 | 24.94979 | 207 ft | 17 kts | 162° |
| 2026-04-23 19:23 | 60.32671 | 24.95060 | 209 ft | 20 kts | 162° |
| 2026-04-23 19:24 | 60.32383 | 24.95249 | 202 ft | 22 kts | 162° |
| 2026-04-23 19:24 | 60.32260 | 24.95413 | 206 ft | 23 kts | 139° |
| 2026-04-23 19:24 | 60.32054 | 24.95794 | 207 ft | 14 kts | 137° |
| 2026-04-23 19:25 | 60.31965 | 24.95957 | 200 ft | 2 kts | 139° |
| 2026-04-23 19:25 | 60.31897 | 24.95886 | 202 ft | 17 kts | 224° |
| 2026-04-23 19:26 | 60.31716 | 24.95493 | 212 ft | 21 kts | 227° |
| 2026-04-23 19:26 | 60.31619 | 24.95278 | 209 ft | 16 kts | 228° |
| 2026-04-23 19:27 | 60.31464 | 24.94993 | 204 ft | 12 kts | 181° |
| 2026-04-23 19:27 | 60.31247 | 24.95365 | 209 ft | 10 kts | 139° |
| 2026-04-23 19:28 | 60.31214 | 24.95424 | 209 ft | 0 kts | 138° |
| 2026-04-23 19:29 | 60.31212 | 24.95429 | 209 ft | 4 kts | 137° |
| 2026-04-23 19:29 | 60.31190 | 24.95648 | 209 ft | 12 kts | 54° |
| 2026-04-23 19:30 | 60.31310 | 24.95912 | 204 ft | 5 kts | 28° |
| 2026-04-23 19:30 | 60.31351 | 24.95899 | 202 ft | 8 kts | 338° |
| 2026-04-23 19:30 | 60.31388 | 24.95856 | 194 ft | 0 kts | 328° |